Latest Coastal Weather Observations for Flinders Reef

IDQ60701

Issued at 8:52 am EST Monday 20 May 2024 (issued every 10 minutes, with the page automatically refreshed every 10 minutes)

About coastal observations | Map of coastal stations | Coastal observations for QLD | Marine services | Other Formats
Station Details ID: 200783 Name: FLINDERS REEF Lat: -17.72 Lon: 148.45 Height: 2.6 m
Data from the previous 72 hours. | See also: Recent months at Flinders Reef
Date/Time
EST
Wind Sea
Height
m
Swell Vis
km
Cloud Weather Temp
°C
Press
MSL
hPa
Rain since
9am
mm
Dir  Spd
kts
Gust
kts
Height
m
Period
s
Dir
20/08:30am E 21 25 - - - - - - - 24.7 1015.8 -
20/08:00am ESE 18 21 - - - - - - - 24.8 1015.9 -
20/07:30am ESE 19 25 - - - - - - - 24.5 1015.5 -
20/07:00am SE 20 24 - - - - - - - 24.4 1015.1 -
20/06:30am ESE 19 23 - - - - - - - 24.5 1015.0 -
20/06:17am SE 20 23 - - - - - - - 24.4 1014.9 -
20/06:12am SE 19 23 - - - - - - - 24.4 1014.8 -
20/06:00am ESE 19 22 - - - - - - - 24.3 1014.8 -
20/05:48am ESE 21 25 - - - - - - - 24.2 1014.6 -
20/05:30am SE 21 25 - - - - - - - 24.1 1014.4 -
20/05:00am SE 20 24 - - - - - - - 24.1 1014.3 -
20/04:30am SSE 20 23 - - - - - - - 24.1 1014.4 -
20/04:00am SE 21 25 - - - - - - - 24.1 1014.4 -
20/03:30am ESE 19 22 - - - - - - - 23.8 1014.5 -
20/03:00am ESE 19 25 - - - - - - - 24.0 1014.4 -
20/02:30am ESE 19 23 - - - - - - - 23.6 1014.7 -
20/02:00am SE 21 26 - - - - - - - 23.4 1015.0 -
20/01:30am SE 21 26 - - - - - - - 23.6 1015.1 -
20/01:00am SE 21 26 - - - - - - - 23.4 1015.5 -
20/12:30am ESE 20 24 - - - - - - - 23.2 1015.8 -
20/12:00am ESE 21 25 - - - - - - - 23.1 1016.1 -
 
Date/Time
EST
Wind Sea
Height
m
Swell Vis
km
Cloud Weather Temp
°C
Press
MSL
hPa
Rain since
9am
mm
Dir  Spd
kts
Gust
kts
Height
m
Period
s
Dir
19/11:30pm SE 22 25 - - - - - - - 22.9 1016.1 -
19/11:00pm SE 21 26 - - - - - - - 23.0 1016.2 -
19/10:30pm SE 22 26 - - - - - - - 23.0 1016.2 -
19/10:00pm SSE 22 25 - - - - - - - 23.1 1016.1 -
19/09:30pm SSE 21 25 - - - - - - - 23.1 1016.3 -
19/09:00pm SSE 20 24 - - - - - - - 23.2 1016.1 -
19/08:30pm SSE 21 26 - - - - - - - 23.0 1015.8 -
19/08:00pm SSE 21 24 - - - - - - - 22.9 1015.4 -
19/07:30pm SSE 22 25 - - - - - - - 23.0 1015.0 -
19/07:00pm SSE 21 25 - - - - - - - 22.9 1014.6 -
19/06:30pm SSE 21 24 - - - - - - - 22.9 1014.3 -
19/06:00pm SE 20 25 - - - - - - - 22.9 1014.0 -
19/05:30pm SSE 21 26 - - - - - - - 23.1 1013.7 -
19/05:00pm SE 21 25 - - - - - - - 23.2 1013.4 -
19/04:30pm SSE 21 25 - - - - - - - 23.0 1013.1 -
19/04:00pm SSE 22 26 - - - - - - - 23.0 1012.9 -
19/03:30pm SSE 23 27 - - - - - - - 23.0 1012.6 -
19/03:00pm SSE 23 27 - - - - - - - 23.4 1012.5 -
19/02:30pm SSE 23 26 - - - - - - - 23.8 1012.7 -
19/02:00pm SSE 23 28 - - - - - - - 23.8 1012.6 -
19/01:30pm SSE 24 29 - - - - - - - 23.8 1012.8 -
19/01:00pm SE 24 29 - - - - - - - 24.0 1012.8 -
19/12:30pm SE 24 28 - - - - - - - 24.3 1012.9 -
19/12:00pm SE 25 29 - - - - - - - 24.4 1013.0 -
19/11:30am SE 26 31 - - - - - - - 24.6 1013.5 -
19/11:00am SE 24 28 - - - - - - - 25.0 1013.7 -
19/10:30am SE 23 28 - - - - - - - 25.1 1014.0 -
19/10:00am SE 25 30 - - - - - - - 25.1 1014.0 -
19/09:30am SE 24 28 - - - - - - - 25.4 1014.0 -
19/09:00am SE 24 30 - - - - - - - 25.2 1013.9 -
19/08:30am SE 22 26 - - - - - - - 25.5 1014.1 -
19/08:00am SE 19 23 - - - - - - - 25.5 1014.2 -
19/07:30am SE 20 24 - - - - - - - 25.3 1013.9 -
19/07:00am SE 20 25 - - - - - - - 25.4 1013.8 -
19/06:30am SE 21 25 - - - - - - - 25.5 1013.3 -
19/06:21am SE 21 25 - - - - - - - 25.4 1013.3 -
19/06:00am SSE 21 24 - - - - - - - 25.4 1013.0 -
19/05:30am SSE 21 25 - - - - - - - 25.3 1012.7 -
19/05:00am SSE 22 26 - - - - - - - 25.1 1012.5 -
19/04:30am SSE 20 23 - - - - - - - 25.3 1012.3 -
19/04:00am SSE 24 28 - - - - - - - 25.2 1012.3 -
19/03:30am SSE 23 29 - - - - - - - 25.3 1012.0 -
19/03:00am SE 23 27 - - - - - - - 25.3 1012.0 -
19/02:30am SE 22 27 - - - - - - - 25.2 1012.1 -
19/02:00am SE 23 27 - - - - - - - 25.3 1012.0 -
19/01:30am SE 21 25 - - - - - - - 25.4 1012.3 -
19/01:00am SE 21 25 - - - - - - - 25.2 1012.8 -
19/12:30am SE 22 26 - - - - - - - 25.2 1012.9 -
19/12:00am SE 21 25 - - - - - - - 25.0 1013.1 -
 
Date/Time
EST
Wind Sea
Height
m
Swell Vis
km
Cloud Weather Temp
°C
Press
MSL
hPa
Rain since
9am
mm
Dir  Spd
kts
Gust
kts
Height
m
Period
s
Dir
18/11:30pm SE 20 24 - - - - - - - 24.9 1013.5 -
18/11:00pm SE 21 24 - - - - - - - 24.9 1013.8 -
18/10:30pm SE 20 24 - - - - - - - 24.9 1014.0 -
18/10:00pm SE 20 25 - - - - - - - 24.9 1014.1 -
18/09:30pm SE 20 23 - - - - - - - 24.9 1014.3 -
18/09:00pm SSE 19 22 - - - - - - - 24.9 1014.3 -
18/08:30pm SSE 20 23 - - - - - - - 24.9 1014.2 -
18/08:00pm SSE 19 23 - - - - - - - 25.0 1014.1 -
18/07:30pm SSE 21 24 - - - - - - - 25.0 1013.9 -
18/07:00pm SSE 21 25 - - - - - - - 25.2 1013.6 -
18/06:30pm SSE 22 25 - - - - - - - 25.1 1013.3 -
18/06:23pm SE 22 25 - - - - - - - 25.5 1013.2 -
18/06:12pm SE 22 25 - - - - - - - 25.2 1013.0 -
18/06:07pm SE 21 25 - - - - - - - 25.3 1013.0 -
18/06:00pm SE 21 27 - - - - - - - 25.4 1012.9 -
18/05:30pm SE 20 23 - - - - - - - 25.6 1012.6 -
18/05:00pm SE 20 24 - - - - - - - 25.4 1012.5 -
18/04:30pm SE 21 24 - - - - - - - 25.6 1012.4 -
18/04:00pm SE 19 22 - - - - - - - 25.4 1012.2 -
18/03:30pm SE 20 24 - - - - - - - 25.6 1012.0 -
18/03:00pm SE 20 24 - - - - - - - 25.5 1012.2 -
18/02:30pm SSE 21 24 - - - - - - - 25.5 1012.3 -
18/02:00pm SSE 21 24 - - - - - - - 25.5 1012.4 -
18/01:30pm SSE 21 25 - - - - - - - 25.4 1012.6 -
18/01:29pm SSE 21 25 - - - - - - - 25.5 1012.6 -
18/01:25pm SSE 21 25 - - - - - - - 25.4 1012.6 -
18/01:18pm SE 20 23 - - - - - - - 25.5 1012.8 -
18/01:00pm SE 20 24 - - - - - - - 25.6 1013.2 -
18/12:30pm SE 21 24 - - - - - - - 25.4 1013.6 -
18/12:00pm SE 20 24 - - - - - - - 25.6 1013.9 -
18/11:30am SE 21 24 - - - - - - - 25.7 1014.2 -
18/11:00am SE 21 25 - - - - - - - 25.7 1014.6 -
18/10:30am SSE 21 27 - - - - - - - 25.8 1014.9 -
18/10:00am SSE 22 26 - - - - - - - 25.7 1015.1 -
18/09:30am SE 22 25 - - - - - - - 25.7 1015.1 -
18/09:22am SE 22 25 - - - - - - - 25.7 1015.1 -
18/09:00am ESE 22 25 - - - - - - - 25.7 1015.1 -
18/08:30am ESE 22 24 - - - - - - - 25.6 1014.9 -
18/08:00am SE 21 25 - - - - - - - 25.4 1014.8 -
18/07:30am SE 21 24 - - - - - - - 25.6 1014.5 -
18/07:00am ESE 21 25 - - - - - - - 25.7 1014.3 -
18/06:30am SE 21 26 - - - - - - - 25.5 1013.9 -
18/06:00am SSE 22 26 - - - - - - - 25.5 1013.7 -
18/05:30am SSE 22 25 - - - - - - - 25.5 1013.3 -
18/05:00am SSE 23 27 - - - - - - - 24.6 1013.1 -
18/04:30am SSE 23 26 - - - - - - - 25.5 1013.0 -
18/04:00am SSE 22 26 - - - - - - - 25.6 1012.9 -
18/03:30am SSE 21 25 - - - - - - - 25.5 1013.0 -
18/03:00am SSE 21 25 - - - - - - - 25.4 1013.0 -
18/02:30am SSE 22 25 - - - - - - - 25.4 1013.2 -
18/02:00am SSE 21 25 - - - - - - - 25.4 1013.5 -
18/01:30am SSE 21 24 - - - - - - - 25.4 1013.8 -
18/01:00am SSE 21 25 - - - - - - - 25.5 1014.2 -
18/12:30am SSE 21 26 - - - - - - - 25.6 1014.5 -
18/12:00am SSE 22 26 - - - - - - - 25.6 1014.8 -
 
Date/Time
EST
Wind Sea
Height
m
Swell Vis
km
Cloud Weather Temp
°C
Press
MSL
hPa
Rain since
9am
mm
Dir  Spd
kts
Gust
kts
Height
m
Period
s
Dir
17/11:30pm SSE 23 27 - - - - - - - 25.7 1015.2 -
17/11:00pm SSE 22 25 - - - - - - - 25.8 1015.3 -
17/10:30pm SSE 24 27 - - - - - - - 25.6 1015.2 -
17/10:00pm SSE 23 27 - - - - - - - 25.4 1015.3 -
17/09:30pm SE 24 29 - - - - - - - 25.4 1015.3 -
17/09:00pm SE 23 28 - - - - - - - 25.7 1015.5 -
17/08:30pm SE 24 28 - - - - - - - 25.6 1015.4 -
17/08:05pm SE 20 30 - - - - - - - 25.1 1015.4 -
17/08:00pm SE 21 30 - - - - - - - 23.8 1015.5 -
17/07:49pm SE 22 29 - - - - - - - 25.5 1015.3 -
17/07:30pm SSE 20 25 - - - - - - - 24.8 1015.1 -
17/07:02pm SE 21 25 - - - - - - - 25.4 1014.7 -
17/07:00pm SE 21 25 - - - - - - - 25.4 1014.7 -
17/06:30pm ESE 20 23 - - - - - - - 24.9 1014.5 -
17/06:24pm SE 22 26 - - - - - - - 24.8 1014.5 -
17/06:05pm ESE 21 25 - - - - - - - 25.6 1014.3 -
17/06:00pm ESE 22 25 - - - - - - - 25.6 1014.3 -
17/05:30pm SE 21 25 - - - - - - - 25.4 1014.2 -
17/05:00pm ESE 20 25 - - - - - - - 25.9 1013.8 -
17/04:30pm ESE 20 24 - - - - - - - 26.0 1013.6 -
17/04:00pm ESE 19 22 - - - - - - - 25.9 1013.5 -
17/03:30pm ESE 20 23 - - - - - - - 26.0 1013.4 -
17/03:00pm ESE 19 22 - - - - - - - 25.8 1013.5 -
17/02:30pm ESE 19 21 - - - - - - - 26.0 1013.6 -
17/02:00pm ESE 19 22 - - - - - - - 26.0 1013.7 -
17/01:30pm SE 19 21 - - - - - - - 26.0 1014.1 -
17/01:00pm ESE 19 21 - - - - - - - 26.0 1014.3 -
17/12:30pm ESE 19 22 - - - - - - - 26.0 1014.6 -
17/12:00pm ESE 20 23 - - - - - - - 26.1 1014.9 -
17/11:30am ESE 19 21 - - - - - - - 25.9 1015.3 -
17/11:00am ESE 19 22 - - - - - - - 25.9 1015.7 -
17/10:58am ESE 19 23 - - - - - - - 26.0 1015.7 -
17/10:40am SE 20 23 - - - - - - - 25.9 1015.9 -
17/10:30am ESE 19 21 - - - - - - - 25.8 1016.2 -
17/10:00am ESE 20 24 - - - - - - - 26.1 1016.5 -
17/09:30am ESE 20 23 - - - - - - - 25.7 1016.6 -
17/09:00am ESE 19 21 - - - - - - - 25.9 1016.7 -

Other formats

Comma delimited format used in spreadsheet applications
http://www.bom.gov.au/fwo/IDQ60701/IDQ60701.94290.axf

JavaScript Object Notation format (JSON) in row-major order
http://www.bom.gov.au/fwo/IDQ60701/IDQ60701.94290.json

Data quality

Most of these data are generated automatically and are frequently updated. Quality checks on data are not normally performed. It is possible for incorrect values to appear. Refer to information at About Latest Weather Observations and please check the disclaimer before using these data.